Time;durP1;ratioP1;P1;durP2;ratioP2;P2;SDS_P1;SDS_P2;PMS_P1;PMS_P2;Temp;Humidity;BMP_temperature;BMP_pressure;BME280_temperature;BME280_humidity;BME280_pressure;Samples;Min_cycle;Max_cycle;Signal;HPM_P1;HPM_P2
2022/12/25 00:00:35;;;;;;;8.43;2.20;;;10.80;99.90;;;;;;5053356;28;20098;-53
2022/12/25 00:03:02;;;;;;;6.72;1.90;;;10.80;99.90;;;;;;5047289;28;20041;-48
2022/12/25 00:05:28;;;;;;;7.22;2.30;;;10.80;99.90;;;;;;5032924;28;20095;-54
2022/12/25 00:07:55;;;;;;;8.05;3.47;;;10.70;99.90;;;;;;5038713;28;20041;-50
2022/12/25 00:10:22;;;;;;;5.28;2.00;;;10.70;99.90;;;;;;5042296;28;20049;-54
2022/12/25 00:12:49;;;;;;;7.40;2.20;;;10.80;99.90;;;;;;5038123;28;20048;-51
2022/12/25 00:15:15;;;;;;;10.35;2.25;;;10.80;99.90;;;;;;5053097;28;20049;-51
2022/12/25 00:17:42;;;;;;;6.55;1.83;;;10.80;99.90;;;;;;5049005;28;20095;-52
2022/12/25 00:20:09;;;;;;;6.88;2.17;;;10.80;99.90;;;;;;5036701;28;20065;-49
2022/12/25 00:22:35;;;;;;;7.60;1.80;;;10.80;99.90;;;;;;5053142;28;20443;-53
2022/12/25 00:25:02;;;;;;;6.82;2.10;;;10.80;99.90;;;;;;5052937;28;20052;-52
2022/12/25 00:27:29;;;;;;;11.07;2.47;;;10.80;99.90;;;;;;5038638;28;20044;-55
2022/12/25 00:29:56;;;;;;;5.10;1.70;;;10.80;99.90;;;;;;5055128;28;20158;-55
2022/12/25 00:32:22;;;;;;;6.72;1.83;;;10.80;99.90;;;;;;5050805;28;20068;-53
2022/12/25 00:34:49;;;;;;;6.43;1.70;;;10.80;99.90;;;;;;5037133;28;20056;-53
2022/12/25 00:37:16;;;;;;;8.73;1.58;;;10.90;99.90;;;;;;5042573;28;20479;-53
2022/12/25 00:39:43;;;;;;;10.02;2.70;;;10.80;99.90;;;;;;5047179;28;20148;-56
2022/12/25 00:42:19;;;;;;;5.47;1.67;;;10.80;99.90;;;;;;5021799;28;20049;-51
2022/12/25 00:44:45;;;;;;;7.57;1.77;;;10.80;99.90;;;;;;5049592;28;20095;-50
2022/12/25 00:47:12;;;;;;;7.65;1.65;;;10.70;99.90;;;;;;5052090;28;20124;-51
2022/12/25 00:49:39;;;;;;;4.45;1.38;;;10.60;99.90;;;;;;5055357;28;20049;-54
2022/12/25 00:52:06;;;;;;;4.35;1.45;;;10.60;99.90;;;;;;5055863;28;20049;-50
2022/12/25 00:54:32;;;;;;;6.05;1.30;;;10.50;99.90;;;;;;5056654;28;20053;-52
2022/12/25 00:56:59;;;;;;;6.50;1.75;;;10.50;99.90;;;;;;5048391;28;20427;-52
2022/12/25 00:59:26;;;;;;;7.18;1.98;;;10.40;99.90;;;;;;5055281;28;20092;-52
2022/12/25 01:01:53;;;;;;;5.78;1.65;;;10.40;99.90;;;;;;5056581;28;20067;-54
2022/12/25 01:04:19;;;;;;;5.90;2.03;;;10.40;99.90;;;;;;5056571;28;20099;-54
2022/12/25 01:06:46;;;;;;;6.03;1.70;;;10.40;99.90;;;;;;5037534;28;20049;-53
2022/12/25 01:11:58;;;;;;;6.20;2.10;;;10.50;99.90;;;;;;5043525;28;20052;-51
2022/12/25 01:14:25;;;;;;;10.50;1.80;;;10.50;99.90;;;;;;5056130;28;20073;-49
2022/12/25 01:16:52;;;;;;;6.55;1.27;;;10.60;99.90;;;;;;5049775;28;20425;-53
2022/12/25 01:19:18;;;;;;;7.90;1.75;;;10.60;99.90;;;;;;5055665;28;20465;-54
2022/12/25 01:21:45;;;;;;;5.45;1.50;;;10.60;99.90;;;;;;5037498;28;20099;-53
2022/12/25 01:24:12;;;;;;;6.32;1.70;;;10.60;99.90;;;;;;5043213;28;20099;-49
2022/12/25 01:26:38;;;;;;;8.07;1.80;;;10.60;99.90;;;;;;5035812;28;20477;-51
2022/12/25 01:29:05;;;;;;;4.82;1.40;;;10.60;99.90;;;;;;5035750;28;20095;-48
2022/12/25 01:31:32;;;;;;;8.27;1.50;;;10.60;99.90;;;;;;5043837;28;20093;-50
2022/12/25 01:33:59;;;;;;;5.60;2.13;;;10.60;99.90;;;;;;5043501;28;20083;-49
2022/12/25 01:36:26;;;;;;;5.15;1.52;;;10.60;99.90;;;;;;5055336;28;20488;-50
2022/12/25 01:38:52;;;;;;;8.15;2.25;;;10.60;99.90;;;;;;5053358;28;20048;-48
2022/12/25 01:41:19;;;;;;;5.13;1.50;;;10.60;99.90;;;;;;5035257;28;20042;-51
2022/12/25 01:43:46;;;;;;;7.05;1.63;;;10.60;99.90;;;;;;5035658;28;20500;-52
2022/12/25 01:46:13;;;;;;;5.80;2.05;;;10.50;99.90;;;;;;5035914;28;20096;-48
2022/12/25 01:48:39;;;;;;;9.23;1.98;;;10.50;99.90;;;;;;5035749;28;20099;-55
2022/12/25 01:51:06;;;;;;;9.30;1.75;;;10.50;99.90;;;;;;5035988;28;20496;-50
2022/12/25 01:53:33;;;;;;;4.97;1.65;;;10.40;99.90;;;;;;5039486;28;20133;-54
2022/12/25 01:56:00;;;;;;;4.20;1.50;;;10.40;99.90;;;;;;5040177;28;20076;-53
2022/12/25 01:58:26;;;;;;;7.10;1.60;;;10.40;99.90;;;;;;5040003;28;20107;-55
2022/12/25 02:00:53;;;;;;;9.27;1.80;;;10.40;99.90;;;;;;5040335;28;20496;-47
2022/12/25 02:03:20;;;;;;;5.80;1.52;;;10.40;99.90;;;;;;5055608;28;20044;-53
2022/12/25 02:05:47;;;;;;;6.72;1.65;;;10.40;99.90;;;;;;5055389;28;20562;-48
2022/12/25 02:08:13;;;;;;;6.45;1.55;;;10.40;99.90;;;;;;5051255;28;20534;-51
2022/12/25 02:10:43;;;;;;;5.03;1.25;;;10.40;99.90;;;;;;5038383;28;20062;-48
2022/12/25 02:13:10;;;;;;;6.00;1.35;;;10.40;99.90;;;;;;5039132;28;20046;-49
2022/12/25 02:15:38;;;;;;;5.93;1.63;;;10.40;99.90;;;;;;5034002;28;20033;-52
2022/12/25 02:18:05;;;;;;;9.32;1.55;;;10.40;99.90;;;;;;5034897;28;20041;-48
2022/12/25 02:20:31;;;;;;;8.13;1.70;;;10.40;99.90;;;;;;5044245;28;20049;-47
2022/12/25 02:22:58;;;;;;;6.90;2.05;;;10.40;99.90;;;;;;5055141;28;20500;-49
2022/12/25 02:25:25;;;;;;;6.93;1.52;;;10.40;99.90;;;;;;5054826;28;20045;-52
2022/12/25 02:27:52;;;;;;;6.43;1.58;;;10.40;99.90;;;;;;5055028;28;20041;-53
2022/12/25 02:30:18;;;;;;;6.20;1.50;;;10.40;99.90;;;;;;5049284;28;20046;-53
2022/12/25 02:32:45;;;;;;;6.93;1.88;;;10.40;99.90;;;;;;5035146;28;20456;-52
2022/12/25 02:35:12;;;;;;;7.72;1.42;;;10.40;99.90;;;;;;5034472;28;20559;-54
2022/12/25 02:37:40;;;;;;;6.32;1.40;;;10.40;99.90;;;;;;5034823;28;20385;-54
2022/12/25 02:40:07;;;;;;;7.35;1.60;;;10.40;99.90;;;;;;5045311;28;20036;-50
2022/12/25 03:07:23;;;;;;;8.85;1.88;;;10.50;99.90;;;;;;5047277;28;20392;-51
2022/12/25 03:12:35;;;;;;;7.22;1.60;;;10.60;99.90;;;;;;5045995;28;20057;-51
2022/12/25 03:17:47;;;;;;;8.15;1.85;;;10.60;99.90;;;;;;5033968;28;20038;-53
2022/12/25 03:28:30;;;;;;;7.97;1.60;;;10.70;99.90;;;;;;5033683;28;20040;-53
2022/12/25 03:31:12;;;;;;;8.70;1.70;;;10.70;99.90;;;;;;5034010;28;20064;-52
2022/12/25 03:33:39;;;;;;;9.38;1.70;;;10.70;99.90;;;;;;5033849;28;20041;-51
2022/12/25 03:36:12;;;;;;;9.48;1.63;;;10.70;99.90;;;;;;5045004;28;20534;-54
2022/12/25 03:42:30;;;;;;;11.52;1.95;;;10.70;99.90;;;;;;5053166;28;20041;-53
2022/12/25 04:36:32;;;;;;;7.82;1.80;;;10.90;99.90;;;;;;5053037;28;20041;-52
2022/12/25 04:38:59;;;;;;;8.32;2.15;;;10.90;99.90;;;;;;5051432;28;20095;-51
2022/12/25 04:41:25;;;;;;;6.45;1.80;;;10.90;99.90;;;;;;5040647;28;20037;-55
2022/12/25 04:43:52;;;;;;;9.25;2.22;;;10.90;99.90;;;;;;5032616;28;20481;-52
2022/12/25 04:46:19;;;;;;;6.72;1.67;;;10.90;99.90;;;;;;5033036;28;20103;-51
2022/12/25 04:48:46;;;;;;;10.18;2.00;;;10.90;99.90;;;;;;5039443;28;20038;-54
2022/12/25 04:51:12;;;;;;;8.05;1.80;;;10.90;99.90;;;;;;5032938;28;20381;-55
2022/12/25 04:53:39;;;;;;;8.70;2.55;;;10.80;99.90;;;;;;5048256;28;20037;-55
2022/12/25 04:56:06;;;;;;;8.35;1.90;;;10.80;99.90;;;;;;5035598;28;20049;-54
2022/12/25 04:58:33;;;;;;;8.77;2.08;;;10.90;99.90;;;;;;5032841;28;20045;-53
2022/12/25 05:01:00;;;;;;;10.48;1.88;;;10.80;99.90;;;;;;5049731;28;20446;-55
2022/12/25 05:03:26;;;;;;;9.48;1.80;;;10.90;99.90;;;;;;5052278;28;20041;-52
2022/12/25 05:05:53;;;;;;;10.63;2.30;;;10.90;99.90;;;;;;5035794;28;20049;-54
2022/12/25 05:08:20;;;;;;;9.02;1.92;;;10.90;99.90;;;;;;5032628;28;20072;-52
2022/12/25 05:10:47;;;;;;;8.95;2.17;;;10.80;99.90;;;;;;5035421;28;20566;-53
2022/12/25 05:13:13;;;;;;;10.05;2.15;;;10.90;99.90;;;;;;5036202;28;20049;-53
2022/12/25 05:15:40;;;;;;;7.35;1.60;;;10.90;99.90;;;;;;5034244;28;20107;-53
2022/12/25 05:18:07;;;;;;;8.23;1.75;;;10.80;99.90;;;;;;5036565;28;20041;-51
2022/12/25 05:20:34;;;;;;;10.80;2.55;;;10.80;99.90;;;;;;5040597;28;20533;-54
2022/12/25 05:23:06;;;;;;;7.82;1.73;;;10.90;99.90;;;;;;5055867;28;20484;-52
2022/12/25 05:25:32;;;;;;;9.80;2.08;;;10.80;99.90;;;;;;5055692;28;20041;-52
2022/12/25 05:27:59;;;;;;;8.73;2.05;;;10.80;99.90;;;;;;5052562;28;20076;-51
2022/12/25 05:30:26;;;;;;;10.25;1.90;;;10.80;99.90;;;;;;5036815;28;20049;-53
2022/12/25 05:32:52;;;;;;;10.48;1.85;;;10.80;99.90;;;;;;5047735;28;20056;-50
2022/12/25 05:35:20;;;;;;;9.18;1.98;;;10.80;99.90;;;;;;5045478;28;20045;-46
2022/12/25 05:37:46;;;;;;;8.95;1.80;;;10.80;99.90;;;;;;5035750;28;20045;-49
2022/12/25 05:40:13;;;;;;;9.98;2.30;;;10.80;99.90;;;;;;5035845;28;20546;-48
2022/12/25 05:42:40;;;;;;;11.18;1.90;;;10.80;99.90;;;;;;5051659;28;20076;-45
2022/12/25 05:45:06;;;;;;;9.30;2.00;;;10.80;99.90;;;;;;5044541;28;20045;-47
2022/12/25 05:47:33;;;;;;;7.90;1.60;;;10.90;99.90;;;;;;5043058;28;20108;-45
2022/12/25 05:50:00;;;;;;;9.48;1.80;;;10.90;99.90;;;;;;5035420;28;20049;-46
2022/12/25 05:52:27;;;;;;;7.28;1.67;;;10.90;99.90;;;;;;5035432;28;20075;-48
2022/12/25 05:54:53;;;;;;;7.90;1.55;;;10.90;99.90;;;;;;5043709;28;20071;-53
2022/12/25 05:57:20;;;;;;;7.00;1.92;;;10.90;99.90;;;;;;5055040;28;20091;-50
2022/12/25 05:59:47;;;;;;;12.63;2.55;;;10.90;99.90;;;;;;5046094;28;20041;-52
2022/12/25 06:02:13;;;;;;;9.80;1.75;;;10.90;99.90;;;;;;5042109;28;20030;-52
2022/12/25 06:04:40;;;;;;;8.25;2.10;;;10.90;99.90;;;;;;5044837;28;20499;-53
2022/12/25 06:07:07;;;;;;;12.52;1.80;;;10.90;99.90;;;;;;5039480;28;20099;-52
2022/12/25 06:09:34;;;;;;;10.32;1.98;;;10.90;99.90;;;;;;5053197;28;20080;-53
2022/12/25 06:12:02;;;;;;;12.68;2.15;;;10.90;99.90;;;;;;5046538;28;20057;-49
2022/12/25 06:14:29;;;;;;;8.35;1.50;;;10.90;99.90;;;;;;5035375;28;20050;-50
2022/12/25 06:16:55;;;;;;;11.00;1.63;;;10.90;99.90;;;;;;5035223;28;20103;-51
2022/12/25 06:19:22;;;;;;;12.82;1.98;;;10.80;99.90;;;;;;5034869;28;20053;-50
2022/12/25 06:21:49;;;;;;;13.52;2.03;;;10.80;99.90;;;;;;5038146;28;20364;-49
2022/12/25 06:24:16;;;;;;;8.43;1.67;;;10.80;99.90;;;;;;5048188;28;20045;-53
2022/12/25 06:26:47;;;;;;;8.70;2.00;;;10.80;99.90;;;;;;5048804;28;20490;-52
2022/12/25 06:29:14;;;;;;;10.93;2.15;;;10.80;99.90;;;;;;5044388;28;20038;-48
2022/12/25 06:31:40;;;;;;;11.48;2.60;;;10.80;99.90;;;;;;5052259;28;20099;-50
2022/12/25 06:34:07;;;;;;;8.95;1.80;;;10.80;99.90;;;;;;5054783;28;20080;-52
2022/12/25 06:36:34;;;;;;;10.07;2.78;;;10.80;99.90;;;;;;5054657;28;20061;-50
2022/12/25 06:39:01;;;;;;;12.57;1.95;;;10.80;99.90;;;;;;5048324;28;20060;-53
2022/12/25 06:41:28;;;;;;;10.15;1.85;;;10.80;99.90;;;;;;5046564;28;20049;-50
2022/12/25 06:43:54;;;;;;;8.95;1.75;;;10.70;99.90;;;;;;5040319;28;20098;-51
2022/12/25 06:46:21;;;;;;;7.82;2.00;;;10.70;99.90;;;;;;5034447;28;20064;-51
2022/12/25 06:48:48;;;;;;;12.13;2.35;;;10.70;99.90;;;;;;5034652;28;20107;-51
2022/12/25 06:51:15;;;;;;;9.95;2.10;;;10.70;99.90;;;;;;5048806;28;20122;-50
2022/12/25 06:53:42;;;;;;;10.15;2.15;;;10.70;99.90;;;;;;5054490;28;20055;-49
2022/12/25 06:56:09;;;;;;;10.18;1.80;;;10.70;99.90;;;;;;5054483;28;20099;-48
2022/12/25 06:58:35;;;;;;;8.35;1.98;;;10.70;99.90;;;;;;5034792;28;20045;-48
2022/12/25 07:01:02;;;;;;;11.77;2.10;;;10.70;99.90;;;;;;5040065;28;20041;-55
2022/12/25 07:03:29;;;;;;;13.75;3.35;;;10.70;99.90;;;;;;5038136;28;20485;-50
2022/12/25 07:05:56;;;;;;;7.80;2.05;;;10.70;99.90;;;;;;5041728;28;20132;-52
2022/12/25 07:08:23;;;;;;;6.78;1.77;;;10.70;99.90;;;;;;5046517;28;20102;-49
2022/12/25 07:10:49;;;;;;;12.10;2.30;;;10.70;99.90;;;;;;5038017;28;20041;-46
2022/12/25 07:13:16;;;;;;;12.82;2.20;;;10.70;99.90;;;;;;5035262;28;20037;-54
2022/12/25 07:15:43;;;;;;;14.60;2.70;;;10.70;99.90;;;;;;5047611;28;20053;-53
2022/12/25 07:18:10;;;;;;;12.80;2.42;;;10.70;99.90;;;;;;5037228;28;20093;-50
2022/12/25 07:20:37;;;;;;;12.10;2.22;;;10.70;99.90;;;;;;5045646;28;20099;-47
2022/12/25 07:23:03;;;;;;;8.73;2.08;;;10.60;99.90;;;;;;5048316;28;20735;-51
2022/12/25 07:25:30;;;;;;;10.52;2.20;;;10.60;99.90;;;;;;5048858;28;20041;-46
2022/12/25 07:28:03;;;;;;;10.15;2.35;;;10.70;99.90;;;;;;5044157;28;20434;-52
2022/12/25 07:30:29;;;;;;;11.32;2.70;;;10.70;99.90;;;;;;5038953;28;20077;-47
2022/12/25 07:32:56;;;;;;;9.70;2.20;;;10.70;99.90;;;;;;5037346;28;20033;-52
2022/12/25 07:35:23;;;;;;;8.68;2.40;;;10.70;99.90;;;;;;5039951;28;20168;-49
2022/12/25 07:37:49;;;;;;;11.77;2.13;;;10.70;99.90;;;;;;5046295;28;20485;-49
2022/12/25 07:40:16;;;;;;;8.63;2.47;;;10.70;99.90;;;;;;5041239;28;20396;-53
2022/12/25 07:42:43;;;;;;;10.93;2.20;;;10.70;99.90;;;;;;5043449;28;20041;-48
2022/12/25 07:45:13;;;;;;;10.40;2.10;;;10.80;99.90;;;;;;5042238;28;20042;-49
2022/12/25 07:47:40;;;;;;;12.25;2.47;;;10.70;99.90;;;;;;5043757;28;20041;-55
2022/12/25 07:50:07;;;;;;;8.82;1.88;;;10.80;99.90;;;;;;5041058;28;20049;-49
2022/12/25 07:52:33;;;;;;;9.20;2.38;;;10.80;99.90;;;;;;5046999;28;20048;-52
2022/12/25 07:55:08;;;;;;;7.50;1.98;;;10.80;99.90;;;;;;5045745;28;20049;-50
2022/12/25 07:57:35;;;;;;;9.98;2.03;;;10.80;99.90;;;;;;5046866;28;20082;-50
2022/12/25 08:00:02;;;;;;;11.68;2.25;;;10.80;99.90;;;;;;5033549;28;20037;-50
2022/12/25 08:02:37;;;;;;;10.80;2.75;;;10.80;99.90;;;;;;5040731;28;20033;-49
2022/12/25 08:05:04;;;;;;;10.90;2.63;;;10.90;99.90;;;;;;5033388;28;20058;-49
2022/12/25 08:07:30;;;;;;;9.70;2.15;;;10.80;99.90;;;;;;5033676;28;20099;-51
2022/12/25 08:09:57;;;;;;;7.80;2.83;;;10.80;99.90;;;;;;5046468;28;20057;-50
2022/12/25 08:12:24;;;;;;;13.50;2.67;;;10.80;99.90;;;;;;5036949;28;20037;-48
2022/12/25 08:14:51;;;;;;;9.77;1.60;;;10.80;99.90;;;;;;5040003;28;20792;-48
2022/12/25 08:17:17;;;;;;;8.50;2.03;;;10.80;99.90;;;;;;5035943;28;20060;-46
2022/12/25 08:19:44;;;;;;;8.50;1.90;;;10.80;99.90;;;;;;5033308;28;20076;-47
2022/12/25 08:22:11;;;;;;;9.13;1.80;;;10.80;99.90;;;;;;5037230;28;20041;-49
2022/12/25 08:24:38;;;;;;;12.00;2.30;;;10.80;99.90;;;;;;5041775;28;20039;-49
2022/12/25 08:27:04;;;;;;;11.80;2.42;;;10.90;99.90;;;;;;5036977;28;20500;-48
2022/12/25 08:29:32;;;;;;;13.13;1.95;;;10.90;99.90;;;;;;5033091;28;20050;-48
2022/12/25 08:31:59;;;;;;;9.93;2.05;;;10.80;99.90;;;;;;5034902;28;20111;-49
2022/12/25 08:34:25;;;;;;;11.20;1.83;;;10.90;99.90;;;;;;5047078;28;20037;-49
2022/12/25 08:36:52;;;;;;;8.27;1.83;;;10.90;99.90;;;;;;5033190;28;20682;-53
2022/12/25 08:39:19;;;;;;;9.85;1.77;;;10.90;99.90;;;;;;5037711;28;20050;-47
2022/12/25 08:41:46;;;;;;;9.68;2.00;;;10.90;99.90;;;;;;5041683;28;20389;-52
2022/12/25 08:44:13;;;;;;;10.32;2.15;;;10.90;99.90;;;;;;5035344;28;20076;-50
2022/12/25 08:46:39;;;;;;;11.45;2.05;;;10.90;99.90;;;;;;5031568;28;20107;-49
2022/12/25 08:49:06;;;;;;;8.63;1.83;;;10.90;99.90;;;;;;5032030;28;20049;-50
2022/12/25 08:51:33;;;;;;;8.75;2.30;;;10.80;99.90;;;;;;5035153;28;20045;-48
2022/12/25 08:54:00;;;;;;;10.30;2.00;;;10.80;99.90;;;;;;5048103;28;20473;-53
2022/12/25 08:56:27;;;;;;;11.45;1.83;;;10.80;99.90;;;;;;5056777;28;20451;-48
2022/12/25 08:58:53;;;;;;;9.13;1.55;;;10.90;99.90;;;;;;5052913;28;20048;-50
2022/12/25 09:01:20;;;;;;;8.88;1.90;;;10.80;99.90;;;;;;5036045;28;20042;-51
2022/12/25 09:03:47;;;;;;;8.93;1.60;;;10.80;99.90;;;;;;5041728;28;20052;-50
2022/12/25 09:06:14;;;;;;;9.43;1.70;;;10.80;99.90;;;;;;5042542;28;20034;-50
2022/12/25 09:08:41;;;;;;;8.85;1.80;;;10.90;99.90;;;;;;5043790;28;20044;-49
2022/12/25 09:11:15;;;;;;;9.55;2.10;;;10.90;99.90;;;;;;5050410;28;20127;-51
2022/12/25 09:13:41;;;;;;;12.02;2.22;;;10.90;99.90;;;;;;5048183;28;20040;-54
2022/12/25 09:16:08;;;;;;;10.95;2.40;;;10.90;99.90;;;;;;5041041;28;20036;-48
2022/12/25 09:18:35;;;;;;;5.53;1.63;;;10.90;99.90;;;;;;5035795;28;20048;-53
2022/12/25 09:21:02;;;;;;;11.80;2.08;;;10.90;99.90;;;;;;5045234;28;20034;-51
2022/12/25 09:23:29;;;;;;;8.73;2.00;;;10.90;99.90;;;;;;5041110;28;20066;-52
2022/12/25 09:25:56;;;;;;;8.52;2.17;;;10.90;99.90;;;;;;5042373;28;20100;-51
2022/12/25 09:28:22;;;;;;;12.15;2.30;;;10.90;99.90;;;;;;5052071;28;20037;-49
2022/12/25 09:30:50;;;;;;;7.20;2.00;;;10.90;99.90;;;;;;5043522;28;20550;-52
2022/12/25 09:33:16;;;;;;;6.93;1.88;;;10.90;99.90;;;;;;5035831;28;20037;-48
2022/12/25 09:35:43;;;;;;;14.90;2.20;;;10.90;99.90;;;;;;5035681;28;20091;-48
2022/12/25 09:38:10;;;;;;;6.68;1.75;;;10.90;99.90;;;;;;5036432;28;20033;-49
2022/12/25 09:40:37;;;;;;;9.63;1.98;;;10.90;99.90;;;;;;5043542;28;20040;-51
2022/12/25 09:43:03;;;;;;;7.57;1.88;;;10.90;99.90;;;;;;5040634;28;20132;-51
2022/12/25 09:45:31;;;;;;;9.75;1.70;;;10.90;99.90;;;;;;5051264;28;20094;-51
2022/12/25 09:47:58;;;;;;;10.55;2.08;;;11.00;99.90;;;;;;5043089;28;20053;-51
2022/12/25 09:50:25;;;;;;;6.40;1.70;;;11.00;99.90;;;;;;5046580;28;20458;-53
2022/12/25 09:52:52;;;;;;;9.10;2.10;;;11.00;99.90;;;;;;5047108;28;20037;-49
2022/12/25 09:55:18;;;;;;;5.82;1.70;;;11.00;99.90;;;;;;5039553;28;20484;-52
2022/12/25 09:57:46;;;;;;;7.05;1.80;;;11.00;99.90;;;;;;5036979;28;20037;-51
2022/12/25 10:00:14;;;;;;;5.68;1.50;;;11.00;99.90;;;;;;5047498;28;20073;-47
2022/12/25 10:02:40;;;;;;;7.13;2.50;;;11.00;99.90;;;;;;5045080;28;20075;-49
2022/12/25 10:05:07;;;;;;;8.80;1.90;;;11.00;99.90;;;;;;5035187;28;20091;-50
2022/12/25 10:07:34;;;;;;;9.80;2.10;;;11.00;99.90;;;;;;5049424;28;20068;-46
2022/12/25 10:10:01;;;;;;;8.73;2.10;;;11.10;99.90;;;;;;5042574;28;20045;-47
2022/12/25 10:12:28;;;;;;;8.35;2.33;;;11.10;99.90;;;;;;5046486;28;20091;-47
2022/12/25 10:14:55;;;;;;;7.32;1.90;;;11.10;99.90;;;;;;5033767;28;20464;-53
2022/12/25 10:17:22;;;;;;;10.55;1.98;;;11.10;99.90;;;;;;5043610;28;20045;-48
2022/12/25 10:19:48;;;;;;;9.52;2.00;;;11.10;99.90;;;;;;5043381;28;20380;-54
2022/12/25 10:22:15;;;;;;;5.80;1.80;;;11.20;99.90;;;;;;5046443;28;20045;-56
2022/12/25 10:24:42;;;;;;;7.45;2.08;;;11.20;99.90;;;;;;5046555;28;20037;-50
2022/12/25 10:27:08;;;;;;;7.10;1.65;;;11.20;99.90;;;;;;5051140;28;20041;-54
2022/12/25 10:29:37;;;;;;;10.15;1.70;;;11.20;99.90;;;;;;5048259;28;20350;-50
2022/12/25 10:32:04;;;;;;;7.90;1.38;;;11.20;99.90;;;;;;5049520;28;20088;-55
2022/12/25 10:34:30;;;;;;;6.88;1.90;;;11.30;99.90;;;;;;5042126;28;20051;-51
2022/12/25 10:36:57;;;;;;;8.43;2.05;;;11.30;99.90;;;;;;5053809;28;20077;-54
2022/12/25 10:39:24;;;;;;;7.15;1.73;;;11.30;99.90;;;;;;5047934;28;20037;-53
2022/12/25 10:41:51;;;;;;;6.03;1.92;;;11.40;99.90;;;;;;5033742;28;20091;-53
2022/12/25 10:44:23;;;;;;;9.05;2.10;;;11.40;99.90;;;;;;5038644;28;20045;-50
2022/12/25 10:46:49;;;;;;;8.05;1.70;;;11.40;99.90;;;;;;5037465;28;20113;-53
2022/12/25 10:49:16;;;;;;;5.93;1.85;;;11.40;99.90;;;;;;5041698;28;20033;-50
2022/12/25 10:51:43;;;;;;;6.50;1.73;;;11.40;99.90;;;;;;5049605;28;20564;-49
2022/12/25 10:54:10;;;;;;;7.82;1.40;;;11.40;99.90;;;;;;5040581;28;20055;-51
2022/12/25 10:56:36;;;;;;;5.72;1.20;;;11.40;99.90;;;;;;5037740;28;20037;-49
2022/12/25 10:59:03;;;;;;;5.70;1.70;;;11.50;99.90;;;;;;5038810;28;20434;-48
2022/12/25 11:01:30;;;;;;;8.25;2.00;;;11.50;99.90;;;;;;5040472;28;20037;-50
2022/12/25 11:03:57;;;;;;;7.82;1.60;;;11.50;99.90;;;;;;5043437;28;20048;-52
2022/12/25 11:06:23;;;;;;;9.43;1.73;;;11.60;99.90;;;;;;5039623;28;20045;-53
2022/12/25 11:08:50;;;;;;;6.78;1.52;;;11.60;99.90;;;;;;5034274;28;20579;-51
2022/12/25 11:11:17;;;;;;;6.88;1.75;;;11.60;99.90;;;;;;5042410;28;20045;-50
2022/12/25 11:13:44;;;;;;;21.80;15.25;;;11.70;99.90;;;;;;5039864;28;20037;-49
2022/12/25 11:16:10;;;;;;;7.82;3.70;;;11.70;99.90;;;;;;5041031;28;20045;-51
2022/12/25 11:18:37;;;;;;;8.25;1.80;;;11.70;99.90;;;;;;5047086;28;20045;-46
2022/12/25 11:21:04;;;;;;;5.38;1.67;;;11.70;99.90;;;;;;5042247;28;20426;-50
2022/12/25 11:23:31;;;;;;;7.63;1.70;;;11.70;99.90;;;;;;5038528;28;20116;-52
2022/12/25 11:25:58;;;;;;;8.70;1.95;;;11.80;99.90;;;;;;5035832;28;20053;-44
2022/12/25 11:28:25;;;;;;;4.35;1.55;;;11.80;99.90;;;;;;5036811;28;20124;-49
2022/12/25 11:30:52;;;;;;;7.40;1.63;;;11.80;99.90;;;;;;5041633;28;20037;-52
2022/12/25 11:33:19;;;;;;;8.65;1.90;;;11.80;99.90;;;;;;5048293;28;20483;-49
2022/12/25 11:35:46;;;;;;;5.25;1.50;;;11.90;99.90;;;;;;5041034;28;20502;-49
2022/12/25 11:38:13;;;;;;;7.75;1.73;;;12.00;99.90;;;;;;5038039;28;20419;-50
2022/12/25 11:40:40;;;;;;;4.53;1.30;;;12.00;99.90;;;;;;5038954;28;20044;-49
2022/12/25 11:43:06;;;;;;;9.00;1.55;;;12.10;99.90;;;;;;5034652;28;20060;-50
2022/12/25 11:45:34;;;;;;;5.90;1.52;;;12.20;99.90;;;;;;5041594;28;20120;-49
2022/12/25 11:48:00;;;;;;;7.05;1.65;;;12.20;99.90;;;;;;5039292;28;20563;-49
2022/12/25 11:50:27;;;;;;;6.43;1.58;;;12.20;99.90;;;;;;5041327;28;20048;-49
2022/12/25 11:52:54;;;;;;;5.57;1.30;;;12.30;99.90;;;;;;5035666;28;20083;-50
2022/12/25 11:55:21;;;;;;;7.68;1.77;;;12.30;99.90;;;;;;5036286;28;20061;-52
2022/12/25 11:57:48;;;;;;;6.40;1.50;;;12.30;99.90;;;;;;5039221;28;20044;-47
2022/12/25 12:00:15;;;;;;;8.07;1.60;;;12.30;99.90;;;;;;5040572;28;20044;-47
2022/12/25 12:02:41;;;;;;;4.95;1.23;;;12.40;99.90;;;;;;5038567;28;20068;-50
2022/12/25 12:05:08;;;;;;;7.60;1.52;;;12.40;99.90;;;;;;5042510;28;20507;-48
2022/12/25 12:07:35;;;;;;;5.05;1.40;;;12.40;99.90;;;;;;5039816;28;20055;-46
2022/12/25 12:10:02;;;;;;;7.75;1.50;;;12.40;99.90;;;;;;5046270;28;20049;-47
2022/12/25 12:12:29;;;;;;;3.50;1.23;;;12.40;99.90;;;;;;5041803;28;20095;-52
2022/12/25 12:14:55;;;;;;;5.90;1.15;;;12.30;99.90;;;;;;5040538;28;20182;-47
2022/12/25 12:17:22;;;;;;;7.45;1.30;;;12.30;99.90;;;;;;5050840;28;20041;-49
2022/12/25 12:19:50;;;;;;;4.78;1.23;;;12.30;99.90;;;;;;5042415;28;20034;-49
2022/12/25 12:22:17;;;;;;;5.57;1.13;;;12.40;99.90;;;;;;5042148;28;20095;-53
2022/12/25 12:24:43;;;;;;;3.88;1.30;;;12.40;99.90;;;;;;5040658;28;20119;-47
2022/12/25 12:27:10;;;;;;;6.50;1.38;;;12.40;99.90;;;;;;5039912;28;20404;-52
2022/12/25 12:29:37;;;;;;;6.22;1.10;;;12.40;99.90;;;;;;5047253;28;20094;-49
2022/12/25 12:32:03;;;;;;;8.15;1.50;;;12.40;99.90;;;;;;5040734;28;20076;-50
2022/12/25 12:34:30;;;;;;;6.15;1.45;;;12.40;99.90;;;;;;5043976;28;20048;-47
2022/12/25 12:36:57;;;;;;;7.75;1.40;;;12.40;99.90;;;;;;5042991;28;20045;-54
2022/12/25 12:39:24;;;;;;;2.50;1.08;;;12.40;99.90;;;;;;5045337;28;20111;-50
2022/12/25 12:41:51;;;;;;;9.82;5.05;;;12.30;99.90;;;;;;5044715;28;20464;-53
2022/12/25 12:44:17;;;;;;;8.73;1.73;;;12.30;99.90;;;;;;5046999;28;20033;-55
2022/12/25 12:46:44;;;;;;;4.38;1.25;;;12.30;99.90;;;;;;5046047;28;20072;-52
2022/12/25 12:49:11;;;;;;;6.63;1.30;;;12.30;99.90;;;;;;5045308;28;20033;-50
2022/12/25 12:51:38;;;;;;;7.13;1.40;;;12.30;99.90;;;;;;5040103;28;20342;-53
2022/12/25 12:54:04;;;;;;;6.80;1.10;;;12.30;99.90;;;;;;5046923;28;20049;-52
2022/12/25 12:56:31;;;;;;;10.52;1.50;;;12.20;99.90;;;;;;5045805;28;20049;-45
2022/12/25 12:58:58;;;;;;;6.25;2.40;;;12.20;99.90;;;;;;5044327;28;20420;-51
2022/12/25 13:01:24;;;;;;;3.80;0.60;;;12.20;99.90;;;;;;5045432;28;20056;-47
2022/12/25 13:03:51;;;;;;;4.43;1.30;;;12.20;99.90;;;;;;5047621;28;20124;-51
2022/12/25 13:06:18;;;;;;;4.82;1.10;;;12.10;99.90;;;;;;5047607;28;20468;-50
2022/12/25 13:08:45;;;;;;;4.70;1.02;;;12.10;99.90;;;;;;5045862;28;20088;-50
2022/12/25 13:11:12;;;;;;;9.32;2.67;;;12.10;99.90;;;;;;5042443;28;20063;-51
2022/12/25 13:13:39;;;;;;;4.80;1.77;;;12.10;99.90;;;;;;5043320;28;20077;-52
2022/12/25 13:16:05;;;;;;;4.47;1.23;;;12.10;99.90;;;;;;5045766;28;20557;-54
2022/12/25 13:18:32;;;;;;;5.15;1.23;;;12.10;99.90;;;;;;5046286;28;20071;-52
2022/12/25 13:20:59;;;;;;;5.05;0.90;;;12.10;99.90;;;;;;5045607;28;20162;-49
2022/12/25 13:23:26;;;;;;;5.65;1.55;;;12.10;99.90;;;;;;5044392;28;20131;-49
2022/12/25 13:25:53;;;;;;;5.72;1.10;;;12.10;99.90;;;;;;5047457;28;20080;-54
2022/12/25 13:28:20;;;;;;;5.20;1.55;;;12.10;99.90;;;;;;5042119;28;20037;-48
2022/12/25 13:30:46;;;;;;;5.85;1.52;;;12.10;99.90;;;;;;5043578;28;20499;-49
2022/12/25 13:33:13;;;;;;;4.90;1.13;;;12.10;99.90;;;;;;5043822;28;20124;-52
2022/12/25 13:35:40;;;;;;;4.13;1.08;;;12.10;99.90;;;;;;5046456;28;20496;-53
2022/12/25 13:38:07;;;;;;;5.15;1.13;;;12.20;99.90;;;;;;5043393;28;20185;-51
2022/12/25 13:40:33;;;;;;;3.33;1.13;;;12.20;99.90;;;;;;5035534;28;20300;-53
2022/12/25 13:43:00;;;;;;;5.38;1.05;;;12.20;99.90;;;;;;5051081;28;20378;-55
2022/12/25 13:45:27;;;;;;;4.82;1.10;;;12.10;99.90;;;;;;5038233;28;20049;-50
2022/12/25 13:47:54;;;;;;;4.88;1.13;;;12.10;99.90;;;;;;5040173;28;20049;-48
2022/12/25 13:50:21;;;;;;;3.83;1.10;;;12.10;99.90;;;;;;5040692;28;20488;-51
2022/12/25 13:52:48;;;;;;;4.88;1.13;;;12.10;99.90;;;;;;5044313;28;20071;-51
2022/12/25 13:55:15;;;;;;;3.80;1.05;;;12.10;99.90;;;;;;5045317;28;20068;-53
2022/12/25 13:57:42;;;;;;;7.28;1.58;;;12.00;99.90;;;;;;5047221;28;20373;-52
2022/12/25 14:00:08;;;;;;;4.45;1.02;;;12.00;99.90;;;;;;5050918;28;20037;-53
2022/12/25 14:02:35;;;;;;;6.55;1.48;;;12.00;99.90;;;;;;5044145;28;20049;-51
2022/12/25 14:05:02;;;;;;;4.72;1.23;;;12.00;99.90;;;;;;5040216;28;20065;-55
2022/12/25 14:07:29;;;;;;;7.60;1.63;;;12.00;99.90;;;;;;5041377;28;20041;-50
2022/12/25 14:09:56;;;;;;;7.60;1.80;;;12.00;99.90;;;;;;5051482;28;20124;-55
2022/12/25 14:12:23;;;;;;;4.85;1.63;;;12.00;99.90;;;;;;5045032;28;20068;-55
2022/12/25 14:14:50;;;;;;;3.33;1.25;;;12.00;99.90;;;;;;5042934;28;20038;-52
2022/12/25 14:17:16;;;;;;;4.78;1.60;;;11.90;99.90;;;;;;5042243;28;20120;-49
2022/12/25 14:19:43;;;;;;;4.72;1.23;;;11.90;99.90;;;;;;5047300;28;20060;-48